createdAt,value
2023-11-01T00:00:06.771Z,98.60
2023-11-01T00:02:39.097Z,98.70
2023-11-01T00:05:06.485Z,98.70
2023-11-01T00:07:33.469Z,98.70
2023-11-01T00:10:00.446Z,98.70
2023-11-01T00:12:27.782Z,98.60
2023-11-01T00:14:54.732Z,98.70
2023-11-01T00:17:21.715Z,98.80
2023-11-01T00:19:48.673Z,98.80
2023-11-01T00:22:15.568Z,98.90
2023-11-01T00:24:44.455Z,98.80
2023-11-01T00:27:11.747Z,98.80
2023-11-01T00:29:38.868Z,98.60
2023-11-01T00:32:06.212Z,98.80
2023-11-01T00:34:33.363Z,99.00
2023-11-01T00:37:00.391Z,99.00
2023-11-01T00:39:27.548Z,98.20
2023-11-01T00:41:54.501Z,98.20
2023-11-01T00:44:21.408Z,98.10
2023-11-01T00:46:48.581Z,98.10
2023-11-01T00:49:15.594Z,98.30
2023-11-01T00:51:42.485Z,98.40
2023-11-01T00:54:09.401Z,98.30
2023-11-01T00:56:36.362Z,98.10
2023-11-01T00:59:03.476Z,98.30
2023-11-01T01:01:30.629Z,98.40
2023-11-01T01:03:57.711Z,98.10
2023-11-01T01:06:25.546Z,98.00
2023-11-01T01:08:52.932Z,98.10
2023-11-01T01:11:21.201Z,98.20
2023-11-01T01:13:48.189Z,98.10
2023-11-01T01:16:15.228Z,98.00
2023-11-01T01:18:43.638Z,98.10
2023-11-01T01:21:10.909Z,97.70
2023-11-01T01:23:37.955Z,97.70
2023-11-01T01:26:05.321Z,98.00
2023-11-01T01:28:32.258Z,97.90
2023-11-01T01:30:59.277Z,98.10
2023-11-01T01:33:26.381Z,97.90
2023-11-01T01:35:53.584Z,98.10
2023-11-01T01:38:20.523Z,98.20
2023-11-01T01:40:47.861Z,98.20
2023-11-01T01:43:19.701Z,97.90
2023-11-01T01:45:59.958Z,97.80
2023-11-01T01:48:27.231Z,98.00
2023-11-01T01:50:54.554Z,97.90
2023-11-01T01:53:21.667Z,97.70
2023-11-01T01:55:49.498Z,97.90
2023-11-01T01:58:16.881Z,97.80
2023-11-01T02:00:44.068Z,98.10
2023-11-01T02:03:12.505Z,98.30
2023-11-01T02:05:39.935Z,98.20
2023-11-01T02:08:07.011Z,98.40
2023-11-01T02:10:33.992Z,98.40
2023-11-01T02:13:11.944Z,98.30
2023-11-01T02:15:40.033Z,98.20
2023-11-01T02:18:08.085Z,98.30
2023-11-01T02:20:36.265Z,98.40
2023-11-01T02:23:05.253Z,98.90
2023-11-01T02:25:32.290Z,98.30
2023-11-01T02:28:00.017Z,98.30
2023-11-01T02:30:26.922Z,98.30
2023-11-01T02:32:53.923Z,98.30
2023-11-01T02:35:21.543Z,98.60
2023-11-01T02:37:51.888Z,99.00
2023-11-01T02:40:19.723Z,99.10
2023-11-01T02:42:49.051Z,98.90
2023-11-01T02:45:16.996Z,98.40
2023-11-01T02:47:44.733Z,98.50
2023-11-01T02:50:13.692Z,98.80
2023-11-01T02:52:41.201Z,98.70
2023-11-01T02:55:11.076Z,99.00
2023-11-01T02:57:38.716Z,99.00
2023-11-01T03:00:07.973Z,99.10
2023-11-01T03:02:38.517Z,99.30
2023-11-01T03:05:08.409Z,99.40
2023-11-01T03:07:35.340Z,99.30
2023-11-01T03:10:02.490Z,99.30
2023-11-01T03:12:29.529Z,99.30
2023-11-01T03:14:56.401Z,98.90
2023-11-01T03:17:23.769Z,98.80
2023-11-01T03:19:50.830Z,98.80
2023-11-01T03:22:17.878Z,99.00
2023-11-01T03:24:44.965Z,99.00
2023-11-01T03:27:11.844Z,99.40
2023-11-01T03:29:38.855Z,99.40
2023-11-01T03:32:06.501Z,99.20
2023-11-01T03:34:33.418Z,99.40
2023-11-01T03:37:00.474Z,99.20
2023-11-01T03:39:27.956Z,99.10
2023-11-01T03:41:54.904Z,99.30
2023-11-01T03:44:24.009Z,99.10
2023-11-01T03:46:50.969Z,99.00
2023-11-01T03:49:17.979Z,99.00
2023-11-01T03:51:45.416Z,99.10
2023-11-01T03:54:12.374Z,99.30
2023-11-01T03:56:44.162Z,99.20
2023-11-01T03:59:11.151Z,99.20
2023-11-01T04:01:38.230Z,99.30
2023-11-01T04:04:05.320Z,99.30
2023-11-01T04:06:32.300Z,99.40
2023-11-01T04:09:00.353Z,99.50
2023-11-01T04:11:27.481Z,99.50
2023-11-01T04:13:54.695Z,99.50
2023-11-01T04:16:21.691Z,99.70
2023-11-01T04:18:48.813Z,99.80
2023-11-01T04:21:15.961Z,99.60
2023-11-01T04:23:42.971Z,99.50
2023-11-01T04:26:09.913Z,99.40
2023-11-01T04:28:37.632Z,99.30
2023-11-01T04:31:04.866Z,99.30
2023-11-01T04:33:33.325Z,99.60
2023-11-01T04:36:00.431Z,99.50
2023-11-01T04:38:27.307Z,99.60
2023-11-01T04:40:55.212Z,99.90
2023-11-01T04:43:22.105Z,99.90
2023-11-01T04:45:49.091Z,99.90
2023-11-01T04:48:16.617Z,99.90
2023-11-01T04:50:49.988Z,99.90
2023-11-01T04:53:17.531Z,99.90
2023-11-01T04:55:46.876Z,99.90
2023-11-01T04:58:15.343Z,99.90
2023-11-01T05:00:42.362Z,99.90
2023-11-01T05:03:09.984Z,99.90
2023-11-01T05:05:36.973Z,99.90
2023-11-01T05:08:04.579Z,99.90
2023-11-01T05:10:31.849Z,99.90
2023-11-01T05:12:58.792Z,99.90
2023-11-01T05:15:26.037Z,99.90
2023-11-01T05:17:54.512Z,99.90
2023-11-01T05:20:21.643Z,99.90
2023-11-01T05:22:48.669Z,99.90
2023-11-01T05:25:15.677Z,99.90
2023-11-01T05:27:43.426Z,99.90
2023-11-01T05:30:17.227Z,99.90
2023-11-01T05:32:47.063Z,99.90
2023-11-01T05:35:15.473Z,99.90
2023-11-01T05:37:43.061Z,99.90
2023-11-01T05:40:16.512Z,99.90
2023-11-01T05:42:45.419Z,99.90
2023-11-01T05:45:18.087Z,99.90
2023-11-01T05:47:53.048Z,99.90
2023-11-01T05:50:26.799Z,99.90
2023-11-01T05:52:55.464Z,99.90
2023-11-01T05:55:26.701Z,99.90
2023-11-01T05:58:01.309Z,99.90
2023-11-01T06:00:28.494Z,99.90
2023-11-01T06:02:55.584Z,99.90
2023-11-01T06:05:24.275Z,99.90
2023-11-01T06:07:51.709Z,99.90
2023-11-01T06:10:19.209Z,99.90
2023-11-01T06:12:46.515Z,99.90
2023-11-01T06:15:14.516Z,99.90
2023-11-01T06:17:41.482Z,99.90
2023-11-01T06:20:09.006Z,99.90
2023-11-01T06:22:35.981Z,99.90
2023-11-01T06:25:03.019Z,99.90
2023-11-01T06:27:30.147Z,99.90
2023-11-01T06:29:57.468Z,99.90
2023-11-01T06:32:24.410Z,99.90
2023-11-01T06:34:51.620Z,99.90
2023-11-01T06:37:18.609Z,99.90
2023-11-01T06:39:45.609Z,99.90
2023-11-01T06:42:12.545Z,99.90
2023-11-01T06:44:39.441Z,99.90
2023-11-01T06:47:06.453Z,99.90
2023-11-01T06:49:35.700Z,99.90
2023-11-01T06:52:02.764Z,99.90
2023-11-01T06:54:29.792Z,99.90
2023-11-01T06:56:57.681Z,99.90
2023-11-01T06:59:25.176Z,99.90
2023-11-01T07:01:52.763Z,99.90
2023-11-01T07:04:19.916Z,99.90
2023-11-01T07:06:46.937Z,99.90
2023-11-01T07:09:14.269Z,99.90
2023-11-01T07:11:41.195Z,99.90
2023-11-01T07:14:08.209Z,99.90
2023-11-01T07:16:42.556Z,99.90
2023-11-01T07:19:09.781Z,99.90
2023-11-01T07:21:37.107Z,99.90
2023-11-01T07:24:04.439Z,99.90
2023-11-01T07:26:31.402Z,99.90
2023-11-01T07:28:59.231Z,99.90
2023-11-01T07:31:26.534Z,99.90
2023-11-01T07:33:54.609Z,99.90
2023-11-01T07:36:21.822Z,99.90
2023-11-01T07:38:49.077Z,99.90
2023-11-01T07:41:16.352Z,99.90
2023-11-01T07:43:43.556Z,99.90
2023-11-01T07:46:10.863Z,99.90
2023-11-01T07:48:37.916Z,99.90
2023-11-01T07:51:07.124Z,99.90
2023-11-01T07:53:35.001Z,99.90
2023-11-01T07:56:02.692Z,99.90
2023-11-01T07:58:30.743Z,99.90
2023-11-01T08:00:58.111Z,99.90
2023-11-01T08:03:25.705Z,99.90
2023-11-01T08:05:52.948Z,99.90
2023-11-01T08:08:20.112Z,99.90
2023-11-01T08:10:47.035Z,99.90
2023-11-01T08:13:14.634Z,99.90
2023-11-01T08:15:41.516Z,99.90
2023-11-01T08:18:11.242Z,99.90
2023-11-01T08:20:39.384Z,99.90
2023-11-01T08:23:07.057Z,99.90
2023-11-01T08:25:35.436Z,99.90
2023-11-01T08:28:03.525Z,99.90
2023-11-01T08:30:30.436Z,99.90
2023-11-01T08:32:57.572Z,99.30
2023-11-01T08:35:25.183Z,99.10
2023-11-01T08:37:52.153Z,98.90
2023-11-01T08:40:19.143Z,99.50
2023-11-01T08:42:46.157Z,99.50
2023-11-01T08:45:13.184Z,99.10
2023-11-01T08:47:45.388Z,99.00
2023-11-01T08:50:14.483Z,99.10
2023-11-01T08:52:44.212Z,99.10
2023-11-01T08:55:14.432Z,99.00
2023-11-01T08:57:42.630Z,98.70
2023-11-01T09:00:10.402Z,98.80
2023-11-01T09:02:37.435Z,98.80
2023-11-01T09:05:04.697Z,98.80
2023-11-01T09:07:31.662Z,98.60
2023-11-01T09:10:01.420Z,98.40
2023-11-01T09:12:29.818Z,98.20
2023-11-01T09:14:56.820Z,97.90
2023-11-01T09:17:23.877Z,97.30
2023-11-01T09:19:50.935Z,96.90
2023-11-01T09:22:18.217Z,97.00
2023-11-01T09:24:45.194Z,96.90
2023-11-01T09:27:12.175Z,96.60
2023-11-01T09:29:39.257Z,96.70
2023-11-01T09:32:06.772Z,97.10
2023-11-01T09:34:34.304Z,96.90
2023-11-01T09:37:01.341Z,96.60
2023-11-01T09:39:28.373Z,96.40
2023-11-01T09:41:56.041Z,95.80
2023-11-01T09:44:23.112Z,96.00
2023-11-01T09:46:51.065Z,95.40
2023-11-01T09:49:18.293Z,95.60
2023-11-01T09:51:48.433Z,95.50
2023-11-01T09:54:15.576Z,95.00
2023-11-01T09:56:44.401Z,95.30
2023-11-01T09:59:12.421Z,94.50
2023-11-01T10:01:39.871Z,94.90
2023-11-01T10:04:08.603Z,95.20
2023-11-01T10:06:39.877Z,95.00
2023-11-01T10:09:07.471Z,94.00
2023-11-01T10:11:34.596Z,93.60
2023-11-01T10:14:02.062Z,94.00
2023-11-01T10:16:29.449Z,94.20
2023-11-01T10:18:56.594Z,93.50
2023-11-01T10:21:28.950Z,92.70
2023-11-01T10:24:02.039Z,92.10
2023-11-01T10:26:30.140Z,91.80
2023-11-01T10:28:58.075Z,91.20
2023-11-01T10:31:25.681Z,90.40
2023-11-01T10:33:53.731Z,90.50
2023-11-01T10:36:21.738Z,90.90
2023-11-01T10:38:52.376Z,91.20
2023-11-01T10:41:20.120Z,91.00
2023-11-01T10:43:48.747Z,91.10
2023-11-01T10:46:17.586Z,91.30
2023-11-01T10:48:47.244Z,91.50
2023-11-01T10:51:15.226Z,91.30
2023-11-01T10:53:43.304Z,91.60
2023-11-01T10:56:10.203Z,92.00
2023-11-01T10:58:43.601Z,91.90
2023-11-01T11:01:17.929Z,90.70
2023-11-01T11:03:53.736Z,91.50
2023-11-01T11:06:27.719Z,91.70
2023-11-01T11:09:24.683Z,91.70
2023-11-01T11:12:15.133Z,91.30
2023-11-01T11:14:46.762Z,91.50
2023-11-01T11:17:16.449Z,92.00
2023-11-01T11:20:10.710Z,91.60
2023-11-01T11:22:59.585Z,91.20
2023-11-01T11:25:38.631Z,90.70
2023-11-01T11:28:10.251Z,91.60
2023-11-01T11:30:47.000Z,92.10
2023-11-01T11:33:15.471Z,91.40
2023-11-01T11:35:43.333Z,91.60
2023-11-01T11:38:30.678Z,91.40
2023-11-01T11:41:39.218Z,91.70
2023-11-01T11:44:09.317Z,92.20
2023-11-01T11:46:49.167Z,92.20
2023-11-01T11:49:27.326Z,92.60
2023-11-01T11:52:07.665Z,91.90
2023-11-01T11:54:36.029Z,91.70
2023-11-01T11:57:12.570Z,91.50
2023-11-01T11:59:42.858Z,91.70
2023-11-01T12:02:11.970Z,92.20
2023-11-01T12:04:41.481Z,92.10
2023-11-01T12:07:08.908Z,92.40
2023-11-01T12:09:36.142Z,92.60
2023-11-01T12:12:22.773Z,93.00
2023-11-01T12:15:03.597Z,93.00
2023-11-01T12:17:31.056Z,93.20
2023-11-01T12:19:58.498Z,93.40
2023-11-01T12:22:26.359Z,93.60
2023-11-01T12:24:56.610Z,93.50
2023-11-01T12:27:31.186Z,93.60
2023-11-01T12:29:58.779Z,93.70
2023-11-01T12:32:25.771Z,93.90
2023-11-01T12:34:52.618Z,93.60
2023-11-01T12:37:36.056Z,94.00
2023-11-01T12:40:21.994Z,94.20
2023-11-01T12:43:05.633Z,93.80
2023-11-01T12:45:34.052Z,93.40
2023-11-01T12:48:01.716Z,93.50
2023-11-01T12:50:31.551Z,93.30
2023-11-01T12:52:58.640Z,93.30
2023-11-01T12:55:26.940Z,93.30
2023-11-01T12:57:55.737Z,93.10
2023-11-01T13:00:29.091Z,93.50
2023-11-01T13:02:57.147Z,92.90
2023-11-01T13:05:24.203Z,93.20
2023-11-01T13:07:52.418Z,92.90
2023-11-01T13:10:19.410Z,93.30
2023-11-01T13:12:49.093Z,93.10
2023-11-01T13:15:17.072Z,93.20
2023-11-01T13:17:45.018Z,93.20
2023-11-01T13:20:12.325Z,93.30
2023-11-01T13:22:39.252Z,93.30
2023-11-01T13:25:07.558Z,93.40
2023-11-01T13:27:34.437Z,93.20
2023-11-01T13:30:01.496Z,93.00
2023-11-01T13:32:28.589Z,93.20
2023-11-01T13:34:56.832Z,93.20
2023-11-01T13:37:23.974Z,93.10
2023-11-01T13:39:51.035Z,93.30
2023-11-01T13:42:18.040Z,93.40
2023-11-01T13:44:45.653Z,93.50
2023-11-01T13:47:13.275Z,93.50
2023-11-01T13:49:42.430Z,93.30
2023-11-01T13:52:09.854Z,93.30
2023-11-01T13:54:36.835Z,93.00
2023-11-01T13:57:04.673Z,93.50
2023-11-01T13:59:31.880Z,93.40
2023-11-01T14:02:00.157Z,93.70
2023-11-01T14:04:27.564Z,93.70
2023-11-01T14:06:54.773Z,93.60
2023-11-01T14:09:22.209Z,93.80
2023-11-01T14:11:53.299Z,93.60
2023-11-01T14:14:22.411Z,93.70
2023-11-01T14:16:49.678Z,93.80
2023-11-01T14:19:16.615Z,93.60
2023-11-01T14:21:43.874Z,93.80
2023-11-01T14:24:11.704Z,94.20
2023-11-01T14:26:39.103Z,94.10
2023-11-01T14:29:07.612Z,93.90
2023-11-01T14:31:34.655Z,94.00
2023-11-01T14:34:01.858Z,94.30
2023-11-01T14:36:28.995Z,94.30
2023-11-01T14:38:56.011Z,94.70
2023-11-01T14:41:23.126Z,94.90
2023-11-01T14:43:50.592Z,94.80
2023-11-01T14:46:17.615Z,95.10
2023-11-01T14:48:45.274Z,95.30
2023-11-01T14:51:12.845Z,95.30
2023-11-01T14:53:40.011Z,95.60
2023-11-01T14:56:16.017Z,95.60
2023-11-01T14:58:47.741Z,95.80
2023-11-01T15:01:14.782Z,96.00
2023-11-01T15:03:42.148Z,96.30
2023-11-01T15:06:09.586Z,96.10
2023-11-01T15:08:39.313Z,96.30
2023-11-01T15:11:06.244Z,96.00
2023-11-01T15:13:33.356Z,96.20
2023-11-01T15:16:01.501Z,96.40
2023-11-01T15:18:29.025Z,96.60
2023-11-01T15:20:57.215Z,96.40
2023-11-01T15:23:24.596Z,96.60
2023-11-01T15:25:51.992Z,97.00
2023-11-01T15:28:19.020Z,97.30
2023-11-01T15:30:46.082Z,97.60
2023-11-01T15:33:13.305Z,97.80
2023-11-01T15:35:40.651Z,98.00
2023-11-01T15:38:07.646Z,98.60
2023-11-01T15:40:34.946Z,99.00
2023-11-01T15:43:03.194Z,99.10
2023-11-01T15:45:30.124Z,99.30
2023-11-01T15:47:57.437Z,99.30
2023-11-01T15:50:24.418Z,99.70
2023-11-01T15:52:51.326Z,99.90
2023-11-01T15:55:18.704Z,99.90
2023-11-01T15:57:45.669Z,99.90
2023-11-01T16:00:13.748Z,99.90
2023-11-01T16:02:40.964Z,99.90
2023-11-01T16:05:08.655Z,99.90
2023-11-01T16:07:35.828Z,99.90
2023-11-01T16:10:03.672Z,99.90
2023-11-01T16:12:30.647Z,99.90
2023-11-01T16:14:58.316Z,99.90
2023-11-01T16:17:25.711Z,99.90
2023-11-01T16:19:52.750Z,99.90
2023-11-01T16:22:22.055Z,99.90
2023-11-01T16:24:50.697Z,99.90
2023-11-01T16:27:19.623Z,99.90
2023-11-01T16:29:46.834Z,99.90
2023-11-01T16:32:15.982Z,99.90
2023-11-01T16:34:45.653Z,99.90
2023-11-01T16:37:13.919Z,99.90
2023-11-01T16:39:40.943Z,99.90
2023-11-01T16:42:15.444Z,99.90
2023-11-01T16:44:43.153Z,99.90
2023-11-01T16:47:10.291Z,99.90
2023-11-01T16:49:43.011Z,99.90
2023-11-01T16:52:10.685Z,99.90
2023-11-01T16:54:37.671Z,99.90
2023-11-01T16:57:04.963Z,99.90
2023-11-01T16:59:31.932Z,99.90
2023-11-01T17:02:00.660Z,99.90
2023-11-01T17:04:28.407Z,99.90
2023-11-01T17:06:55.519Z,99.90
2023-11-01T17:09:22.433Z,99.90
2023-11-01T17:11:49.466Z,99.90
2023-11-01T17:14:16.457Z,99.90
2023-11-01T17:16:43.510Z,99.90
2023-11-01T17:19:10.496Z,99.90
2023-11-01T17:21:37.424Z,99.90
2023-11-01T17:24:07.552Z,99.90
2023-11-01T17:26:34.648Z,99.90
2023-11-01T17:29:01.808Z,99.90
2023-11-01T17:31:40.567Z,99.90
2023-11-01T17:34:08.811Z,99.90
2023-11-01T17:36:36.844Z,99.90
2023-11-01T17:39:06.855Z,99.90
2023-11-01T17:41:48.370Z,99.90
2023-11-01T17:44:25.123Z,99.90
2023-11-01T17:46:56.539Z,99.90
2023-11-01T17:49:51.794Z,99.90
2023-11-01T17:52:29.298Z,99.90
2023-11-01T17:54:57.281Z,99.90
2023-11-01T17:57:24.219Z,99.90
2023-11-01T17:59:51.206Z,99.90
2023-11-01T18:02:28.036Z,99.90
2023-11-01T18:05:00.267Z,99.90
2023-11-01T18:07:27.967Z,99.90
2023-11-01T18:09:58.082Z,99.90
2023-11-01T18:12:25.076Z,99.90
2023-11-01T18:14:55.260Z,99.90
2023-11-01T18:17:23.090Z,99.90
2023-11-01T18:19:50.426Z,99.90
2023-11-01T18:22:44.699Z,99.90
2023-11-01T18:26:05.217Z,99.90
2023-11-01T18:28:33.296Z,99.90
2023-11-01T18:31:01.395Z,99.90
2023-11-01T18:33:28.483Z,99.90
2023-11-01T18:35:55.707Z,99.90
2023-11-01T18:38:50.197Z,99.90
2023-11-01T18:41:17.908Z,99.90
2023-11-01T18:43:45.308Z,99.90
2023-11-01T18:46:12.278Z,99.90
2023-11-01T18:48:39.285Z,99.90
2023-11-01T18:51:54.504Z,99.90
2023-11-01T18:54:22.343Z,99.90
2023-11-01T18:56:49.435Z,99.90
2023-11-01T18:59:30.778Z,99.90
2023-11-01T19:01:58.515Z,99.90
2023-11-01T19:04:26.151Z,99.90
2023-11-01T19:06:53.132Z,99.90
2023-11-01T19:09:21.586Z,99.90
2023-11-01T19:11:50.155Z,99.90
2023-11-01T19:14:17.242Z,99.90
2023-11-01T19:16:44.296Z,99.90
2023-11-01T19:19:11.221Z,99.90
2023-11-01T19:21:38.247Z,99.90
2023-11-01T19:24:05.598Z,99.90
2023-11-01T19:26:33.007Z,99.90
2023-11-01T19:29:00.150Z,99.90
2023-11-01T19:31:27.241Z,99.90
2023-11-01T19:33:55.666Z,99.90
2023-11-01T19:36:24.311Z,99.90
2023-11-01T19:38:51.551Z,99.90
2023-11-01T19:41:18.561Z,99.90
2023-11-01T19:43:45.536Z,99.90
2023-11-01T19:46:12.746Z,99.90
2023-11-01T19:48:41.857Z,99.90
2023-11-01T19:51:08.985Z,99.90
2023-11-01T19:53:36.006Z,99.90
2023-11-01T19:56:03.023Z,99.90
2023-11-01T19:58:30.014Z,99.90
2023-11-01T20:00:57.065Z,99.90
2023-11-01T20:03:24.127Z,99.90
2023-11-01T20:05:51.634Z,99.90
2023-11-01T20:08:18.633Z,99.90
2023-11-01T20:10:45.571Z,99.90
2023-11-01T20:13:12.569Z,99.90
2023-11-01T20:15:39.634Z,99.90
2023-11-01T20:18:06.715Z,99.90
2023-11-01T20:20:33.712Z,99.90
2023-11-01T20:23:00.777Z,99.90
2023-11-01T20:25:28.158Z,99.90
2023-11-01T20:27:55.548Z,99.90
2023-11-01T20:30:22.754Z,99.90
2023-11-01T20:32:49.894Z,99.90
2023-11-01T20:35:16.985Z,99.90
2023-11-01T20:37:44.926Z,99.90
2023-11-01T20:40:11.914Z,99.90
2023-11-01T20:42:40.179Z,99.90
2023-11-01T20:45:07.795Z,99.90
2023-11-01T20:47:36.151Z,99.90
2023-11-01T20:50:03.343Z,99.90
2023-11-01T20:52:32.104Z,99.90
2023-11-01T20:55:02.508Z,99.90
2023-11-01T20:57:32.760Z,99.90
2023-11-01T21:00:01.051Z,99.90
2023-11-01T21:02:29.013Z,99.90
2023-11-01T21:04:57.114Z,99.90
2023-11-01T21:07:27.817Z,99.90
2023-11-01T21:09:55.181Z,99.90
2023-11-01T21:12:25.333Z,99.90
2023-11-01T21:14:53.486Z,99.90
2023-11-01T21:17:20.649Z,99.90
2023-11-01T21:19:51.237Z,99.90
2023-11-01T21:22:18.201Z,99.90
2023-11-01T21:24:45.211Z,99.90
2023-11-01T21:27:12.258Z,99.90
2023-11-01T21:29:39.254Z,99.90
2023-11-01T21:32:06.478Z,99.90
2023-11-01T21:34:33.619Z,99.90
2023-11-01T21:37:00.832Z,99.90
2023-11-01T21:39:30.192Z,99.90
2023-11-01T21:41:57.705Z,99.90
2023-11-01T21:44:34.122Z,99.90
2023-11-01T21:47:08.123Z,99.90
2023-11-01T21:49:35.569Z,99.90
2023-11-01T21:52:18.438Z,99.90
2023-11-01T21:54:46.656Z,99.90
2023-11-01T21:57:19.884Z,99.90
2023-11-01T21:59:47.224Z,99.90
2023-11-01T22:02:19.600Z,99.90
2023-11-01T22:04:51.824Z,99.90
2023-11-01T22:07:19.508Z,99.90
2023-11-01T22:09:49.853Z,99.90
2023-11-01T22:12:18.446Z,99.90
2023-11-01T22:14:45.722Z,99.90
2023-11-01T22:17:32.728Z,99.90
2023-11-01T22:19:59.893Z,99.90
2023-11-01T22:22:26.828Z,99.90
2023-11-01T22:24:54.601Z,99.90
2023-11-01T22:27:42.381Z,99.90
2023-11-01T22:30:09.667Z,99.90
2023-11-01T22:32:36.833Z,99.90
2023-11-01T22:35:08.922Z,99.90
2023-11-01T22:37:36.627Z,99.90
2023-11-01T22:40:08.079Z,99.90
2023-11-01T22:42:35.089Z,99.90
2023-11-01T22:45:03.296Z,99.90
2023-11-01T22:47:31.185Z,99.90
2023-11-01T22:49:58.848Z,99.90
2023-11-01T22:52:26.054Z,99.90
2023-11-01T22:54:53.064Z,99.90
2023-11-01T22:57:20.054Z,99.90
2023-11-01T22:59:47.092Z,99.90
2023-11-01T23:02:16.557Z,99.90
2023-11-01T23:04:44.024Z,99.90
2023-11-01T23:07:11.807Z,99.90
2023-11-01T23:09:38.848Z,99.90
2023-11-01T23:12:06.489Z,99.90
2023-11-01T23:14:33.565Z,99.90
2023-11-01T23:17:01.488Z,99.90
2023-11-01T23:19:28.392Z,99.90
2023-11-01T23:21:55.344Z,99.90
2023-11-01T23:24:24.303Z,99.90
2023-11-01T23:26:58.302Z,99.90
2023-11-01T23:29:37.428Z,99.90
2023-11-01T23:32:11.918Z,99.90
2023-11-01T23:34:43.568Z,99.90
2023-11-01T23:37:16.909Z,99.90
2023-11-01T23:39:44.424Z,99.90
2023-11-01T23:42:15.719Z,99.90
2023-11-01T23:44:43.247Z,99.90
2023-11-01T23:47:13.389Z,99.90
2023-11-01T23:50:00.179Z,99.90
2023-11-01T23:52:31.676Z,99.90
2023-11-01T23:54:59.418Z,99.90
2023-11-01T23:57:30.483Z,99.90
2023-11-01T23:59:58.249Z,99.90
